sensor_id;sensor_type;location;lat;lon;timestamp;P1;durP1;ratioP1;P2;durP2;ratioP2
1390;SDS011;690;51.454;7.194;2023-04-02T00:07:55;8.13;;;7.33;;
1390;SDS011;690;51.454;7.194;2023-04-02T00:10:29;11.13;;;8.60;;
1390;SDS011;690;51.454;7.194;2023-04-02T00:13:02;9.57;;;7.63;;
1390;SDS011;690;51.454;7.194;2023-04-02T00:15:32;8.70;;;7.80;;
1390;SDS011;690;51.454;7.194;2023-04-02T00:17:59;7.17;;;6.47;;
1390;SDS011;690;51.454;7.194;2023-04-02T00:20:27;8.70;;;7.80;;
1390;SDS011;690;51.454;7.194;2023-04-02T00:22:58;8.33;;;7.17;;
1390;SDS011;690;51.454;7.194;2023-04-02T00:25:25;8.10;;;7.30;;
1390;SDS011;690;51.454;7.194;2023-04-02T00:27:55;7.37;;;6.20;;
1390;SDS011;690;51.454;7.194;2023-04-02T00:30:22;7.20;;;6.50;;
1390;SDS011;690;51.454;7.194;2023-04-02T00:32:49;6.93;;;6.23;;
1390;SDS011;690;51.454;7.194;2023-04-02T00:35:18;7.37;;;6.67;;
1390;SDS011;690;51.454;7.194;2023-04-02T00:37:48;6.10;;;5.50;;
1390;SDS011;690;51.454;7.194;2023-04-02T00:40:18;8.40;;;5.80;;
1390;SDS011;690;51.454;7.194;2023-04-02T00:42:47;6.87;;;6.23;;
1390;SDS011;690;51.454;7.194;2023-04-02T00:45:18;5.63;;;5.07;;
1390;SDS011;690;51.454;7.194;2023-04-02T00:47:49;6.57;;;5.97;;
1390;SDS011;690;51.454;7.194;2023-04-02T00:50:21;5.43;;;4.93;;
1390;SDS011;690;51.454;7.194;2023-04-02T00:52:53;5.00;;;4.60;;
1390;SDS011;690;51.454;7.194;2023-04-02T00:55:22;5.67;;;5.17;;
1390;SDS011;690;51.454;7.194;2023-04-02T00:57:52;5.60;;;5.10;;
1390;SDS011;690;51.454;7.194;2023-04-02T01:00:22;4.50;;;4.10;;
1390;SDS011;690;51.454;7.194;2023-04-02T01:03:13;6.00;;;5.40;;
1390;SDS011;690;51.454;7.194;2023-04-02T01:05:59;5.63;;;4.80;;
1390;SDS011;690;51.454;7.194;2023-04-02T01:08:31;7.40;;;4.50;;
1390;SDS011;690;51.454;7.194;2023-04-02T01:11:09;4.90;;;4.50;;
1390;SDS011;690;51.454;7.194;2023-04-02T01:13:46;5.13;;;4.63;;
1390;SDS011;690;51.454;7.194;2023-04-02T01:16:24;4.90;;;4.50;;
1390;SDS011;690;51.454;7.194;2023-04-02T01:18:57;5.73;;;5.10;;
1390;SDS011;690;51.454;7.194;2023-04-02T01:21:36;5.90;;;5.30;;
1390;SDS011;690;51.454;7.194;2023-04-02T01:24:19;5.53;;;4.90;;
1390;SDS011;690;51.454;7.194;2023-04-02T01:26:51;5.50;;;5.00;;
1390;SDS011;690;51.454;7.194;2023-04-02T01:29:22;5.90;;;5.30;;
1390;SDS011;690;51.454;7.194;2023-04-02T01:31:52;6.53;;;5.90;;
1390;SDS011;690;51.454;7.194;2023-04-02T01:34:23;5.63;;;5.13;;
1390;SDS011;690;51.454;7.194;2023-04-02T01:36:59;5.53;;;4.90;;
1390;SDS011;690;51.454;7.194;2023-04-02T01:39:53;5.70;;;5.20;;
1390;SDS011;690;51.454;7.194;2023-04-02T01:42:34;6.20;;;5.27;;
1390;SDS011;690;51.454;7.194;2023-04-02T01:45:08;6.23;;;5.57;;
1390;SDS011;690;51.454;7.194;2023-04-02T01:47:38;6.73;;;6.03;;
1390;SDS011;690;51.454;7.194;2023-04-02T01:50:11;6.50;;;5.90;;
1390;SDS011;690;51.454;7.194;2023-04-02T01:52:48;6.10;;;5.50;;
1390;SDS011;690;51.454;7.194;2023-04-02T01:55:18;5.70;;;5.20;;
1390;SDS011;690;51.454;7.194;2023-04-02T01:57:49;5.77;;;5.00;;
1390;SDS011;690;51.454;7.194;2023-04-02T02:00:20;5.10;;;4.60;;
1390;SDS011;690;51.454;7.194;2023-04-02T02:02:48;5.20;;;4.80;;
1390;SDS011;690;51.454;7.194;2023-04-02T02:05:17;6.10;;;5.50;;
1390;SDS011;690;51.454;7.194;2023-04-02T02:07:47;5.60;;;5.17;;
1390;SDS011;690;51.454;7.194;2023-04-02T02:10:14;5.30;;;4.83;;
1390;SDS011;690;51.454;7.194;2023-04-02T02:12:46;5.90;;;5.33;;
1390;SDS011;690;51.454;7.194;2023-04-02T02:15:19;6.50;;;5.50;;
1390;SDS011;690;51.454;7.194;2023-04-02T02:17:49;6.00;;;5.07;;
1390;SDS011;690;51.454;7.194;2023-04-02T02:20:20;6.30;;;5.70;;
1390;SDS011;690;51.454;7.194;2023-04-02T02:22:48;6.73;;;5.80;;
1390;SDS011;690;51.454;7.194;2023-04-02T02:25:17;6.10;;;5.50;;
1390;SDS011;690;51.454;7.194;2023-04-02T02:27:54;6.93;;;6.00;;
1390;SDS011;690;51.454;7.194;2023-04-02T02:30:27;7.10;;;6.00;;
1390;SDS011;690;51.454;7.194;2023-04-02T02:32:59;8.50;;;6.33;;
1390;SDS011;690;51.454;7.194;2023-04-02T02:35:32;7.70;;;5.37;;
1390;SDS011;690;51.454;7.194;2023-04-02T02:38:24;5.73;;;5.20;;
1390;SDS011;690;51.454;7.194;2023-04-02T02:41:12;5.33;;;4.83;;
1390;SDS011;690;51.454;7.194;2023-04-02T02:43:47;5.40;;;4.90;;
1390;SDS011;690;51.454;7.194;2023-04-02T02:46:22;5.77;;;5.17;;
1390;SDS011;690;51.454;7.194;2023-04-02T02:48:50;5.77;;;4.80;;
1390;SDS011;690;51.454;7.194;2023-04-02T02:51:20;6.47;;;5.60;;
1390;SDS011;690;51.454;7.194;2023-04-02T02:53:53;5.50;;;5.00;;
1390;SDS011;690;51.454;7.194;2023-04-02T02:56:25;6.33;;;5.73;;
1390;SDS011;690;51.454;7.194;2023-04-02T02:58:54;7.20;;;6.50;;
1390;SDS011;690;51.454;7.194;2023-04-02T03:01:23;7.37;;;5.40;;
1390;SDS011;690;51.454;7.194;2023-04-02T03:03:52;7.80;;;7.07;;
1390;SDS011;690;51.454;7.194;2023-04-02T03:06:22;6.30;;;5.70;;
1390;SDS011;690;51.454;7.194;2023-04-02T03:08:51;5.97;;;5.37;;
1390;SDS011;690;51.454;7.194;2023-04-02T03:11:25;5.73;;;5.23;;
1390;SDS011;690;51.454;7.194;2023-04-02T03:14:01;6.20;;;5.43;;
1390;SDS011;690;51.454;7.194;2023-04-02T03:16:35;7.47;;;5.90;;
1390;SDS011;690;51.454;7.194;2023-04-02T03:19:06;6.33;;;5.73;;
1390;SDS011;690;51.454;7.194;2023-04-02T03:21:42;6.67;;;5.93;;
1390;SDS011;690;51.454;7.194;2023-04-02T03:24:18;7.53;;;6.03;;
1390;SDS011;690;51.454;7.194;2023-04-02T03:26:51;7.70;;;5.90;;
1390;SDS011;690;51.454;7.194;2023-04-02T03:29:24;6.30;;;5.70;;
1390;SDS011;690;51.454;7.194;2023-04-02T03:31:55;13.63;;;7.37;;
1390;SDS011;690;51.454;7.194;2023-04-02T03:34:27;8.23;;;7.18;;
1390;SDS011;690;51.454;7.194;2023-04-02T03:36:58;8.73;;;7.65;;
1390;SDS011;690;51.454;7.194;2023-04-02T03:39:29;8.85;;;7.60;;
1390;SDS011;690;51.454;7.194;2023-04-02T03:42:02;7.30;;;6.40;;
1390;SDS011;690;51.454;7.194;2023-04-02T03:44:33;9.97;;;7.57;;
1390;SDS011;690;51.454;7.194;2023-04-02T03:47:09;9.35;;;7.13;;
1390;SDS011;690;51.454;7.194;2023-04-02T03:49:40;9.95;;;7.55;;
1390;SDS011;690;51.454;7.194;2023-04-02T03:52:12;8.50;;;7.50;;
1390;SDS011;690;51.454;7.194;2023-04-02T03:54:50;9.68;;;7.45;;
1390;SDS011;690;51.454;7.194;2023-04-02T03:57:20;8.70;;;7.80;;
1390;SDS011;690;51.454;7.194;2023-04-02T03:59:53;9.13;;;7.90;;
1390;SDS011;690;51.454;7.194;2023-04-02T04:02:32;10.88;;;8.50;;
1390;SDS011;690;51.454;7.194;2023-04-02T04:05:03;11.98;;;8.13;;
1390;SDS011;690;51.454;7.194;2023-04-02T04:07:33;9.93;;;8.20;;
1390;SDS011;690;51.454;7.194;2023-04-02T04:10:04;12.98;;;8.23;;
1390;SDS011;690;51.454;7.194;2023-04-02T04:12:33;10.68;;;8.50;;
1390;SDS011;690;51.454;7.194;2023-04-02T04:15:03;10.38;;;8.70;;
1390;SDS011;690;51.454;7.194;2023-04-02T04:17:39;12.00;;;8.68;;
1390;SDS011;690;51.454;7.194;2023-04-02T04:20:16;12.50;;;9.85;;
1390;SDS011;690;51.454;7.194;2023-04-02T04:22:47;11.30;;;7.93;;
1390;SDS011;690;51.454;7.194;2023-04-02T04:25:20;11.50;;;9.00;;
1390;SDS011;690;51.454;7.194;2023-04-02T04:27:58;14.38;;;8.68;;
1390;SDS011;690;51.454;7.194;2023-04-02T04:30:35;12.77;;;9.13;;
1390;SDS011;690;51.454;7.194;2023-04-02T04:33:12;11.00;;;9.38;;
1390;SDS011;690;51.454;7.194;2023-04-02T04:35:47;12.38;;;9.38;;
1390;SDS011;690;51.454;7.194;2023-04-02T04:38:18;12.80;;;8.90;;
1390;SDS011;690;51.454;7.194;2023-04-02T04:40:53;12.90;;;9.38;;
1390;SDS011;690;51.454;7.194;2023-04-02T04:43:25;12.77;;;9.82;;
1390;SDS011;690;51.454;7.194;2023-04-02T04:45:59;14.40;;;8.90;;
1390;SDS011;690;51.454;7.194;2023-04-02T04:48:32;13.40;;;9.80;;
1390;SDS011;690;51.454;7.194;2023-04-02T04:51:02;13.75;;;9.50;;
1390;SDS011;690;51.454;7.194;2023-04-02T04:53:33;16.40;;;9.68;;
1390;SDS011;690;51.454;7.194;2023-04-02T04:56:10;12.77;;;9.82;;
1390;SDS011;690;51.454;7.194;2023-04-02T04:58:40;14.35;;;9.07;;
1390;SDS011;690;51.454;7.194;2023-04-02T05:01:11;13.02;;;9.75;;
1390;SDS011;690;51.454;7.194;2023-04-02T05:03:44;12.23;;;9.38;;
1390;SDS011;690;51.454;7.194;2023-04-02T05:06:22;17.45;;;10.45;;
1390;SDS011;690;51.454;7.194;2023-04-02T05:08:58;14.25;;;9.68;;
1390;SDS011;690;51.454;7.194;2023-04-02T05:11:29;14.13;;;9.90;;
1390;SDS011;690;51.454;7.194;2023-04-02T05:13:59;12.10;;;9.15;;
1390;SDS011;690;51.454;7.194;2023-04-02T05:16:30;14.80;;;9.38;;
1390;SDS011;690;51.454;7.194;2023-04-02T05:19:04;11.27;;;9.00;;
1390;SDS011;690;51.454;7.194;2023-04-02T05:21:36;15.20;;;9.45;;
1390;SDS011;690;51.454;7.194;2023-04-02T05:24:19;12.57;;;8.48;;
1390;SDS011;690;51.454;7.194;2023-04-02T05:27:12;9.27;;;7.40;;
1390;SDS011;690;51.454;7.194;2023-04-02T05:29:45;12.70;;;8.95;;
1390;SDS011;690;51.454;7.194;2023-04-02T05:32:18;10.10;;;7.07;;
1390;SDS011;690;51.454;7.194;2023-04-02T05:34:51;12.68;;;9.18;;
1390;SDS011;690;51.454;7.194;2023-04-02T05:37:21;11.10;;;7.87;;
1390;SDS011;690;51.454;7.194;2023-04-02T05:39:53;20.23;;;8.77;;
1390;SDS011;690;51.454;7.194;2023-04-02T05:42:22;10.45;;;8.55;;
1390;SDS011;690;51.454;7.194;2023-04-02T05:44:54;14.20;;;8.50;;
1390;SDS011;690;51.454;7.194;2023-04-02T05:47:29;13.35;;;8.52;;
1390;SDS011;690;51.454;7.194;2023-04-02T05:50:07;11.30;;;8.05;;
1390;SDS011;690;51.454;7.194;2023-04-02T05:52:45;9.57;;;6.43;;
1390;SDS011;690;51.454;7.194;2023-04-02T05:55:24;13.48;;;8.10;;
1390;SDS011;690;51.454;7.194;2023-04-02T05:58:01;10.68;;;7.53;;
1390;SDS011;690;51.454;7.194;2023-04-02T06:00:42;9.70;;;6.80;;
1390;SDS011;690;51.454;7.194;2023-04-02T06:03:20;10.43;;;6.80;;
1390;SDS011;690;51.454;7.194;2023-04-02T06:05:54;11.82;;;7.10;;
1390;SDS011;690;51.454;7.194;2023-04-02T06:08:28;11.10;;;6.57;;
1390;SDS011;690;51.454;7.194;2023-04-02T06:11:00;9.90;;;7.50;;
1390;SDS011;690;51.454;7.194;2023-04-02T06:13:32;12.30;;;7.30;;
1390;SDS011;690;51.454;7.194;2023-04-02T06:15:59;9.75;;;7.85;;
1390;SDS011;690;51.454;7.194;2023-04-02T06:18:27;14.57;;;7.22;;
1390;SDS011;690;51.454;7.194;2023-04-02T06:20:57;10.32;;;6.95;;
1390;SDS011;690;51.454;7.194;2023-04-02T06:23:24;11.68;;;7.60;;
1390;SDS011;690;51.454;7.194;2023-04-02T06:25:57;11.43;;;6.75;;
1390;SDS011;690;51.454;7.194;2023-04-02T06:28:28;9.95;;;7.25;;
1390;SDS011;690;51.454;7.194;2023-04-02T06:31:08;13.65;;;6.90;;
1390;SDS011;690;51.454;7.194;2023-04-02T06:33:41;11.63;;;7.22;;
1390;SDS011;690;51.454;7.194;2023-04-02T06:36:11;15.52;;;7.60;;
1390;SDS011;690;51.454;7.194;2023-04-02T06:38:38;10.68;;;7.13;;
1390;SDS011;690;51.454;7.194;2023-04-02T06:41:07;11.40;;;7.72;;
1390;SDS011;690;51.454;7.194;2023-04-02T06:43:43;10.30;;;7.60;;
1390;SDS011;690;51.454;7.194;2023-04-02T06:46:13;14.23;;;7.55;;
1390;SDS011;690;51.454;7.194;2023-04-02T06:48:45;9.32;;;7.25;;
1390;SDS011;690;51.454;7.194;2023-04-02T06:51:17;12.48;;;7.40;;
1390;SDS011;690;51.454;7.194;2023-04-02T06:53:48;13.07;;;6.57;;
1390;SDS011;690;51.454;7.194;2023-04-02T06:56:18;8.68;;;5.95;;
1390;SDS011;690;51.454;7.194;2023-04-02T06:58:51;12.30;;;5.88;;
1390;SDS011;690;51.454;7.194;2023-04-02T07:01:19;8.90;;;6.22;;
1390;SDS011;690;51.454;7.194;2023-04-02T07:03:48;7.82;;;5.68;;
1390;SDS011;690;51.454;7.194;2023-04-02T07:06:18;7.70;;;5.93;;
1390;SDS011;690;51.454;7.194;2023-04-02T07:08:46;7.70;;;5.95;;
1390;SDS011;690;51.454;7.194;2023-04-02T07:11:13;6.72;;;5.82;;
1390;SDS011;690;51.454;7.194;2023-04-02T07:13:41;7.97;;;4.60;;
1390;SDS011;690;51.454;7.194;2023-04-02T07:16:10;9.52;;;5.68;;
1390;SDS011;690;51.454;7.194;2023-04-02T07:18:40;19.58;;;5.90;;
1390;SDS011;690;51.454;7.194;2023-04-02T07:21:07;7.18;;;5.80;;
1390;SDS011;690;51.454;7.194;2023-04-02T07:23:36;5.80;;;5.20;;
1390;SDS011;690;51.454;7.194;2023-04-02T07:26:03;6.10;;;4.72;;
1390;SDS011;690;51.454;7.194;2023-04-02T07:28:31;7.53;;;6.32;;
1390;SDS011;690;51.454;7.194;2023-04-02T07:30:58;9.45;;;5.25;;
1390;SDS011;690;51.454;7.194;2023-04-02T07:33:26;5.40;;;4.78;;
1390;SDS011;690;51.454;7.194;2023-04-02T07:35:55;7.13;;;5.40;;
1390;SDS011;690;51.454;7.194;2023-04-02T07:38:22;8.25;;;5.45;;
1390;SDS011;690;51.454;7.194;2023-04-02T07:40:51;7.15;;;4.35;;
1390;SDS011;690;51.454;7.194;2023-04-02T07:43:19;7.72;;;5.15;;
1390;SDS011;690;51.454;7.194;2023-04-02T07:45:48;7.43;;;4.78;;
1390;SDS011;690;51.454;7.194;2023-04-02T07:48:15;5.70;;;4.78;;
1390;SDS011;690;51.454;7.194;2023-04-02T07:50:44;8.75;;;5.35;;
1390;SDS011;690;51.454;7.194;2023-04-02T07:53:14;9.80;;;4.80;;
1390;SDS011;690;51.454;7.194;2023-04-02T07:55:55;11.07;;;5.80;;
1390;SDS011;690;51.454;7.194;2023-04-02T07:58:22;9.70;;;5.18;;
1390;SDS011;690;51.454;7.194;2023-04-02T08:00:49;7.60;;;5.00;;
1390;SDS011;690;51.454;7.194;2023-04-02T08:03:16;6.43;;;4.28;;
1390;SDS011;690;51.454;7.194;2023-04-02T08:05:48;8.80;;;5.55;;
1390;SDS011;690;51.454;7.194;2023-04-02T08:08:16;5.38;;;4.95;;
1390;SDS011;690;51.454;7.194;2023-04-02T08:10:43;7.07;;;4.70;;
1390;SDS011;690;51.454;7.194;2023-04-02T08:13:11;7.57;;;4.77;;
1390;SDS011;690;51.454;7.194;2023-04-02T08:15:38;8.60;;;5.57;;
1390;SDS011;690;51.454;7.194;2023-04-02T08:18:05;7.40;;;5.50;;
1390;SDS011;690;51.454;7.194;2023-04-02T08:20:32;7.30;;;5.07;;
1390;SDS011;690;51.454;7.194;2023-04-02T08:22:59;8.03;;;4.60;;
1390;SDS011;690;51.454;7.194;2023-04-02T08:25:27;5.40;;;4.90;;
1390;SDS011;690;51.454;7.194;2023-04-02T08:27:54;8.00;;;5.50;;
1390;SDS011;690;51.454;7.194;2023-04-02T08:30:23;7.97;;;4.80;;
1390;SDS011;690;51.454;7.194;2023-04-02T08:32:50;8.30;;;4.33;;
1390;SDS011;690;51.454;7.194;2023-04-02T08:35:17;4.47;;;4.00;;
1390;SDS011;690;51.454;7.194;2023-04-02T08:37:44;6.17;;;4.20;;
1390;SDS011;690;51.454;7.194;2023-04-02T08:40:17;5.83;;;4.43;;
1390;SDS011;690;51.454;7.194;2023-04-02T08:42:50;6.83;;;4.50;;
1390;SDS011;690;51.454;7.194;2023-04-02T08:45:31;6.13;;;4.50;;
1390;SDS011;690;51.454;7.194;2023-04-02T08:48:06;7.20;;;4.70;;
1390;SDS011;690;51.454;7.194;2023-04-02T08:50:36;5.77;;;4.47;;
1390;SDS011;690;51.454;7.194;2023-04-02T08:53:05;7.70;;;4.73;;
1390;SDS011;690;51.454;7.194;2023-04-02T08:55:39;6.10;;;3.73;;
1390;SDS011;690;51.454;7.194;2023-04-02T08:58:15;6.90;;;3.97;;
1390;SDS011;690;51.454;7.194;2023-04-02T09:00:50;4.80;;;3.83;;
1390;SDS011;690;51.454;7.194;2023-04-02T09:03:20;7.47;;;4.33;;
1390;SDS011;690;51.454;7.194;2023-04-02T09:05:54;4.83;;;4.17;;
1390;SDS011;690;51.454;7.194;2023-04-02T09:08:23;5.93;;;4.10;;
1390;SDS011;690;51.454;7.194;2023-04-02T09:10:53;6.40;;;3.57;;
1390;SDS011;690;51.454;7.194;2023-04-02T09:13:26;5.53;;;3.90;;
1390;SDS011;690;51.454;7.194;2023-04-02T09:15:59;6.00;;;3.60;;
1390;SDS011;690;51.454;7.194;2023-04-02T09:18:28;3.50;;;3.13;;
1390;SDS011;690;51.454;7.194;2023-04-02T09:20:57;6.20;;;3.57;;
1390;SDS011;690;51.454;7.194;2023-04-02T09:23:25;7.03;;;3.10;;
1390;SDS011;690;51.454;7.194;2023-04-02T09:25:53;4.97;;;3.47;;
1390;SDS011;690;51.454;7.194;2023-04-02T09:28:20;3.77;;;3.37;;
1390;SDS011;690;51.454;7.194;2023-04-02T09:31:00;10.30;;;3.77;;
1390;SDS011;690;51.454;7.194;2023-04-02T09:33:41;4.80;;;3.67;;
1390;SDS011;690;51.454;7.194;2023-04-02T09:36:16;4.40;;;3.23;;
1390;SDS011;690;51.454;7.194;2023-04-02T09:38:57;5.83;;;4.30;;
1390;SDS011;690;51.454;7.194;2023-04-02T09:41:30;6.83;;;3.60;;
1390;SDS011;690;51.454;7.194;2023-04-02T09:44:10;7.80;;;3.87;;
1390;SDS011;690;51.454;7.194;2023-04-02T09:46:49;10.30;;;3.87;;
1390;SDS011;690;51.454;7.194;2023-04-02T09:49:24;3.90;;;2.90;;
1390;SDS011;690;51.454;7.194;2023-04-02T09:55:09;5.47;;;2.70;;
1390;SDS011;690;51.454;7.194;2023-04-02T09:57:47;5.27;;;2.17;;
1390;SDS011;690;51.454;7.194;2023-04-02T10:00:17;6.30;;;2.93;;
1390;SDS011;690;51.454;7.194;2023-04-02T10:02:59;4.63;;;3.30;;
1390;SDS011;690;51.454;7.194;2023-04-02T10:05:28;3.97;;;2.97;;
1390;SDS011;690;51.454;7.194;2023-04-02T10:08:04;4.53;;;2.90;;
1390;SDS011;690;51.454;7.194;2023-04-02T10:10:34;5.33;;;3.13;;
1390;SDS011;690;51.454;7.194;2023-04-02T10:13:05;4.60;;;3.10;;
1390;SDS011;690;51.454;7.194;2023-04-02T10:15:38;3.60;;;3.13;;
1390;SDS011;690;51.454;7.194;2023-04-02T10:18:13;7.17;;;2.90;;
1390;SDS011;690;51.454;7.194;2023-04-02T10:20:46;7.20;;;2.90;;
1390;SDS011;690;51.454;7.194;2023-04-02T10:23:16;4.03;;;3.10;;
1390;SDS011;690;51.454;7.194;2023-04-02T10:25:45;6.80;;;3.40;;
1390;SDS011;690;51.454;7.194;2023-04-02T10:28:22;5.53;;;3.40;;
1390;SDS011;690;51.454;7.194;2023-04-02T10:30:59;5.37;;;3.63;;
1390;SDS011;690;51.454;7.194;2023-04-02T10:33:37;4.73;;;3.90;;
1390;SDS011;690;51.454;7.194;2023-04-02T10:36:07;6.87;;;4.73;;
1390;SDS011;690;51.454;7.194;2023-04-02T10:38:43;5.60;;;4.63;;
1390;SDS011;690;51.454;7.194;2023-04-02T10:41:21;5.97;;;4.40;;
1390;SDS011;690;51.454;7.194;2023-04-02T10:46:50;5.17;;;3.37;;
1390;SDS011;690;51.454;7.194;2023-04-02T10:49:31;5.10;;;3.70;;
1390;SDS011;690;51.454;7.194;2023-04-02T10:52:06;3.60;;;2.90;;
1390;SDS011;690;51.454;7.194;2023-04-02T10:54:40;4.57;;;3.47;;
1390;SDS011;690;51.454;7.194;2023-04-02T10:57:16;3.40;;;2.97;;
1390;SDS011;690;51.454;7.194;2023-04-02T10:59:52;7.63;;;3.10;;
1390;SDS011;690;51.454;7.194;2023-04-02T11:02:33;6.30;;;3.00;;
1390;SDS011;690;51.454;7.194;2023-04-02T11:05:10;5.43;;;3.27;;
1390;SDS011;690;51.454;7.194;2023-04-02T11:07:48;4.20;;;3.80;;
1390;SDS011;690;51.454;7.194;2023-04-02T11:10:29;3.57;;;3.27;;
1390;SDS011;690;51.454;7.194;2023-04-02T11:13:01;4.37;;;2.83;;
1390;SDS011;690;51.454;7.194;2023-04-02T11:15:36;3.83;;;3.17;;
1390;SDS011;690;51.454;7.194;2023-04-02T11:18:17;3.50;;;2.90;;
1390;SDS011;690;51.454;7.194;2023-04-02T11:23:59;2.77;;;2.57;;
1390;SDS011;690;51.454;7.194;2023-04-02T11:26:27;5.60;;;2.97;;
1390;SDS011;690;51.454;7.194;2023-04-02T11:29:01;5.97;;;3.23;;
1390;SDS011;690;51.454;7.194;2023-04-02T11:31:46;4.40;;;2.80;;
1390;SDS011;690;51.454;7.194;2023-04-02T11:34:15;4.67;;;2.53;;
1390;SDS011;690;51.454;7.194;2023-04-02T11:37:31;5.97;;;2.80;;
1390;SDS011;690;51.454;7.194;2023-04-02T11:40:00;3.30;;;2.50;;
1390;SDS011;690;51.454;7.194;2023-04-02T11:42:31;2.73;;;2.10;;
1390;SDS011;690;51.454;7.194;2023-04-02T11:50:53;3.40;;;2.50;;
1390;SDS011;690;51.454;7.194;2023-04-02T11:53:23;2.50;;;2.30;;
1390;SDS011;690;51.454;7.194;2023-04-02T11:56:06;3.40;;;2.33;;
1390;SDS011;690;51.454;7.194;2023-04-02T11:58:48;5.10;;;2.50;;
1390;SDS011;690;51.454;7.194;2023-04-02T12:01:32;4.33;;;2.50;;
1390;SDS011;690;51.454;7.194;2023-04-02T12:04:36;2.43;;;2.20;;
1390;SDS011;690;51.454;7.194;2023-04-02T12:10:21;3.50;;;2.43;;
1390;SDS011;690;51.454;7.194;2023-04-02T12:12:49;3.33;;;2.30;;
1390;SDS011;690;51.454;7.194;2023-04-02T12:15:28;5.23;;;2.70;;
1390;SDS011;690;51.454;7.194;2023-04-02T12:18:02;2.00;;;1.90;;
1390;SDS011;690;51.454;7.194;2023-04-02T12:20:35;2.57;;;2.20;;
1390;SDS011;690;51.454;7.194;2023-04-02T12:23:03;2.93;;;2.40;;
1390;SDS011;690;51.454;7.194;2023-04-02T12:25:32;2.40;;;2.20;;
1390;SDS011;690;51.454;7.194;2023-04-02T12:28:05;4.20;;;2.63;;
1390;SDS011;690;51.454;7.194;2023-04-02T12:30:41;3.37;;;3.07;;
1390;SDS011;690;51.454;7.194;2023-04-02T12:33:16;6.80;;;2.97;;
1390;SDS011;690;51.454;7.194;2023-04-02T12:35:55;4.23;;;3.10;;
1390;SDS011;690;51.454;7.194;2023-04-02T12:38:24;4.40;;;2.57;;
1390;SDS011;690;51.454;7.194;2023-04-02T12:40:53;4.33;;;3.13;;
1390;SDS011;690;51.454;7.194;2023-04-02T12:43:22;2.83;;;2.23;;
1390;SDS011;690;51.454;7.194;2023-04-02T12:45:53;8.10;;;2.57;;
1390;SDS011;690;51.454;7.194;2023-04-02T12:48:21;4.63;;;3.20;;
1390;SDS011;690;51.454;7.194;2023-04-02T12:50:49;4.23;;;2.70;;
1390;SDS011;690;51.454;7.194;2023-04-02T12:53:17;3.30;;;2.87;;
1390;SDS011;690;51.454;7.194;2023-04-02T12:55:47;4.10;;;2.60;;
1390;SDS011;690;51.454;7.194;2023-04-02T12:58:27;3.43;;;2.33;;
1390;SDS011;690;51.454;7.194;2023-04-02T13:01:10;3.60;;;2.80;;
1390;SDS011;690;51.454;7.194;2023-04-02T13:03:38;2.40;;;2.10;;
1390;SDS011;690;51.454;7.194;2023-04-02T13:06:17;3.23;;;2.90;;
1390;SDS011;690;51.454;7.194;2023-04-02T13:08:47;2.80;;;2.40;;
1390;SDS011;690;51.454;7.194;2023-04-02T13:11:14;7.67;;;2.70;;
1390;SDS011;690;51.454;7.194;2023-04-02T13:13:42;2.63;;;2.17;;
1390;SDS011;690;51.454;7.194;2023-04-02T13:16:23;4.17;;;2.43;;
1390;SDS011;690;51.454;7.194;2023-04-02T13:19:07;3.30;;;2.73;;
1390;SDS011;690;51.454;7.194;2023-04-02T13:21:36;3.40;;;2.60;;
1390;SDS011;690;51.454;7.194;2023-04-02T13:24:03;3.70;;;3.00;;
1390;SDS011;690;51.454;7.194;2023-04-02T13:26:40;3.80;;;2.43;;
1390;SDS011;690;51.454;7.194;2023-04-02T13:29:15;5.20;;;2.70;;
1390;SDS011;690;51.454;7.194;2023-04-02T13:31:49;2.93;;;2.30;;
1390;SDS011;690;51.454;7.194;2023-04-02T13:34:16;3.97;;;2.70;;
1390;SDS011;690;51.454;7.194;2023-04-02T13:36:43;3.00;;;2.50;;
1390;SDS011;690;51.454;7.194;2023-04-02T13:39:11;4.80;;;2.97;;
1390;SDS011;690;51.454;7.194;2023-04-02T13:41:39;4.30;;;2.73;;
1390;SDS011;690;51.454;7.194;2023-04-02T13:44:13;2.80;;;2.60;;
1390;SDS011;690;51.454;7.194;2023-04-02T13:46:45;6.17;;;2.40;;
1390;SDS011;690;51.454;7.194;2023-04-02T13:49:12;3.97;;;2.30;;
1390;SDS011;690;51.454;7.194;2023-04-02T13:51:40;2.80;;;2.00;;
1390;SDS011;690;51.454;7.194;2023-04-02T13:54:10;3.10;;;2.37;;
1390;SDS011;690;51.454;7.194;2023-04-02T13:56:42;2.57;;;2.20;;
1390;SDS011;690;51.454;7.194;2023-04-02T13:59:09;5.30;;;2.60;;
1390;SDS011;690;51.454;7.194;2023-04-02T14:01:37;2.40;;;2.20;;
1390;SDS011;690;51.454;7.194;2023-04-02T14:04:05;6.23;;;2.60;;
1390;SDS011;690;51.454;7.194;2023-04-02T14:06:49;6.17;;;2.50;;
1390;SDS011;690;51.454;7.194;2023-04-02T14:09:32;4.93;;;2.43;;
1390;SDS011;690;51.454;7.194;2023-04-02T14:12:11;3.33;;;2.03;;
1390;SDS011;690;51.454;7.194;2023-04-02T14:14:53;2.70;;;2.23;;
1390;SDS011;690;51.454;7.194;2023-04-02T14:17:35;2.90;;;2.00;;
1390;SDS011;690;51.454;7.194;2023-04-02T14:20:15;2.60;;;2.30;;
1390;SDS011;690;51.454;7.194;2023-04-02T14:22:55;3.60;;;2.43;;
1390;SDS011;690;51.454;7.194;2023-04-02T14:25:34;4.03;;;2.47;;
1390;SDS011;690;51.454;7.194;2023-04-02T14:28:06;5.60;;;2.87;;
1390;SDS011;690;51.454;7.194;2023-04-02T14:30:41;4.07;;;2.63;;
1390;SDS011;690;51.454;7.194;2023-04-02T14:33:17;4.00;;;2.40;;
1390;SDS011;690;51.454;7.194;2023-04-02T14:35:53;3.77;;;2.50;;
1390;SDS011;690;51.454;7.194;2023-04-02T14:38:26;5.40;;;3.00;;
1390;SDS011;690;51.454;7.194;2023-04-02T14:40:57;4.10;;;2.37;;
1390;SDS011;690;51.454;7.194;2023-04-02T14:43:30;4.33;;;2.87;;
1390;SDS011;690;51.454;7.194;2023-04-02T14:46:04;2.70;;;2.50;;
1390;SDS011;690;51.454;7.194;2023-04-02T14:48:41;3.60;;;2.60;;
1390;SDS011;690;51.454;7.194;2023-04-02T14:51:18;3.80;;;2.60;;
1390;SDS011;690;51.454;7.194;2023-04-02T14:53:51;2.93;;;2.07;;
1390;SDS011;690;51.454;7.194;2023-04-02T14:56:23;7.63;;;2.80;;
1390;SDS011;690;51.454;7.194;2023-04-02T14:58:52;2.60;;;2.10;;
1390;SDS011;690;51.454;7.194;2023-04-02T15:01:26;4.63;;;2.67;;
1390;SDS011;690;51.454;7.194;2023-04-02T15:04:01;3.30;;;2.57;;
1390;SDS011;690;51.454;7.194;2023-04-02T15:06:30;3.30;;;2.20;;
1390;SDS011;690;51.454;7.194;2023-04-02T15:09:01;5.60;;;2.83;;
1390;SDS011;690;51.454;7.194;2023-04-02T15:11:31;6.77;;;2.00;;
1390;SDS011;690;51.454;7.194;2023-04-02T15:14:01;3.77;;;2.47;;
1390;SDS011;690;51.454;7.194;2023-04-02T15:16:32;4.33;;;2.50;;
1390;SDS011;690;51.454;7.194;2023-04-02T15:19:02;3.63;;;2.50;;
1390;SDS011;690;51.454;7.194;2023-04-02T15:21:33;4.00;;;2.67;;
1390;SDS011;690;51.454;7.194;2023-04-02T15:24:08;4.47;;;2.50;;
1390;SDS011;690;51.454;7.194;2023-04-02T15:26:43;3.57;;;2.60;;
1390;SDS011;690;51.454;7.194;2023-04-02T15:29:21;3.17;;;2.50;;
1390;SDS011;690;51.454;7.194;2023-04-02T15:31:56;4.47;;;2.40;;
1390;SDS011;690;51.454;7.194;2023-04-02T15:34:30;4.40;;;2.70;;
1390;SDS011;690;51.454;7.194;2023-04-02T15:37:06;2.93;;;2.30;;
1390;SDS011;690;51.454;7.194;2023-04-02T15:42:45;2.97;;;2.67;;
1390;SDS011;690;51.454;7.194;2023-04-02T15:45:25;6.93;;;2.80;;
1390;SDS011;690;51.454;7.194;2023-04-02T15:51:13;4.00;;;2.50;;
1390;SDS011;690;51.454;7.194;2023-04-02T15:53:52;3.43;;;2.17;;
1390;SDS011;690;51.454;7.194;2023-04-02T15:56:25;2.90;;;2.60;;
1390;SDS011;690;51.454;7.194;2023-04-02T16:02:01;4.33;;;2.37;;
1390;SDS011;690;51.454;7.194;2023-04-02T16:04:49;4.27;;;3.53;;
1390;SDS011;690;51.454;7.194;2023-04-02T16:07:34;4.03;;;2.60;;
1390;SDS011;690;51.454;7.194;2023-04-02T16:10:15;3.70;;;2.50;;
1390;SDS011;690;51.454;7.194;2023-04-02T16:12:48;2.87;;;1.90;;
1390;SDS011;690;51.454;7.194;2023-04-02T16:15:19;2.90;;;2.27;;
1390;SDS011;690;51.454;7.194;2023-04-02T16:17:50;5.60;;;2.80;;
1390;SDS011;690;51.454;7.194;2023-04-02T16:20:21;3.27;;;2.20;;
1390;SDS011;690;51.454;7.194;2023-04-02T16:22:54;5.03;;;2.50;;
1390;SDS011;690;51.454;7.194;2023-04-02T16:25:25;4.40;;;2.60;;
1390;SDS011;690;51.454;7.194;2023-04-02T16:27:58;4.23;;;2.20;;
1390;SDS011;690;51.454;7.194;2023-04-02T16:30:34;4.20;;;2.50;;
1390;SDS011;690;51.454;7.194;2023-04-02T16:33:13;3.97;;;2.57;;
1390;SDS011;690;51.454;7.194;2023-04-02T16:35:53;4.43;;;2.07;;
1390;SDS011;690;51.454;7.194;2023-04-02T16:38:33;2.50;;;2.20;;